sensor_id;sensor_type;location;lat;lon;timestamp;P1;durP1;ratioP1;P2;durP2;ratioP2
76194;SDS011;64964;48.694;21.206;2023-08-08T00:00:47;1.10;;;1.10;;
76194;SDS011;64964;48.694;21.206;2023-08-08T00:03:13;1.50;;;1.10;;
76194;SDS011;64964;48.694;21.206;2023-08-08T00:05:38;2.28;;;1.02;;
76194;SDS011;64964;48.694;21.206;2023-08-08T00:08:04;1.87;;;0.90;;
76194;SDS011;64964;48.694;21.206;2023-08-08T00:10:29;1.50;;;0.97;;
76194;SDS011;64964;48.694;21.206;2023-08-08T00:12:55;1.20;;;1.00;;
76194;SDS011;64964;48.694;21.206;2023-08-08T00:15:20;0.85;;;0.85;;
76194;SDS011;64964;48.694;21.206;2023-08-08T00:17:46;0.90;;;0.90;;
76194;SDS011;64964;48.694;21.206;2023-08-08T00:20:11;1.98;;;0.80;;
76194;SDS011;64964;48.694;21.206;2023-08-08T00:22:37;1.17;;;0.90;;
76194;SDS011;64964;48.694;21.206;2023-08-08T00:25:02;0.80;;;0.80;;
76194;SDS011;64964;48.694;21.206;2023-08-08T00:27:28;1.05;;;1.00;;
76194;SDS011;64964;48.694;21.206;2023-08-08T00:29:54;1.00;;;0.70;;
76194;SDS011;64964;48.694;21.206;2023-08-08T00:32:19;0.80;;;0.80;;
76194;SDS011;64964;48.694;21.206;2023-08-08T00:34:45;2.37;;;0.80;;
76194;SDS011;64964;48.694;21.206;2023-08-08T00:37:10;2.10;;;0.83;;
76194;SDS011;64964;48.694;21.206;2023-08-08T00:39:36;1.10;;;0.90;;
76194;SDS011;64964;48.694;21.206;2023-08-08T00:42:01;1.98;;;0.90;;
76194;SDS011;64964;48.694;21.206;2023-08-08T00:44:27;1.97;;;0.80;;
76194;SDS011;64964;48.694;21.206;2023-08-08T00:46:52;1.83;;;0.80;;
76194;SDS011;64964;48.694;21.206;2023-08-08T00:49:17;1.50;;;0.90;;
76194;SDS011;64964;48.694;21.206;2023-08-08T00:51:43;0.90;;;0.90;;
76194;SDS011;64964;48.694;21.206;2023-08-08T00:54:08;1.63;;;0.87;;
76194;SDS011;64964;48.694;21.206;2023-08-08T00:56:35;2.95;;;0.85;;
76194;SDS011;64964;48.694;21.206;2023-08-08T00:59:01;3.33;;;1.15;;
76194;SDS011;64964;48.694;21.206;2023-08-08T01:01:27;1.17;;;1.00;;
76194;SDS011;64964;48.694;21.206;2023-08-08T01:03:52;1.10;;;1.00;;
76194;SDS011;64964;48.694;21.206;2023-08-08T01:09:21;0.95;;;0.95;;
76194;SDS011;64964;48.694;21.206;2023-08-08T01:11:53;1.52;;;1.00;;
76194;SDS011;64964;48.694;21.206;2023-08-08T01:14:19;3.92;;;2.03;;
76194;SDS011;64964;48.694;21.206;2023-08-08T01:16:46;2.97;;;1.70;;
76194;SDS011;64964;48.694;21.206;2023-08-08T01:19:12;2.80;;;1.70;;
76194;SDS011;64964;48.694;21.206;2023-08-08T01:21:45;3.63;;;2.00;;
76194;SDS011;64964;48.694;21.206;2023-08-08T01:24:21;3.77;;;2.10;;
76194;SDS011;64964;48.694;21.206;2023-08-08T01:26:48;3.65;;;1.70;;
76194;SDS011;64964;48.694;21.206;2023-08-08T01:29:14;3.70;;;2.25;;
76194;SDS011;64964;48.694;21.206;2023-08-08T01:31:40;3.27;;;2.10;;
76194;SDS011;64964;48.694;21.206;2023-08-08T01:34:05;5.03;;;2.10;;
76194;SDS011;64964;48.694;21.206;2023-08-08T01:36:32;4.15;;;2.30;;
76194;SDS011;64964;48.694;21.206;2023-08-08T01:39:03;2.80;;;2.07;;
76194;SDS011;64964;48.694;21.206;2023-08-08T01:41:34;3.25;;;2.33;;
76194;SDS011;64964;48.694;21.206;2023-08-08T01:44:04;3.92;;;2.30;;
76194;SDS011;64964;48.694;21.206;2023-08-08T01:46:31;6.63;;;2.30;;
76194;SDS011;64964;48.694;21.206;2023-08-08T01:48:57;5.22;;;1.80;;
76194;SDS011;64964;48.694;21.206;2023-08-08T01:51:24;3.23;;;2.00;;
76194;SDS011;64964;48.694;21.206;2023-08-08T01:53:50;3.78;;;2.25;;
76194;SDS011;64964;48.694;21.206;2023-08-08T01:56:16;2.92;;;2.20;;
76194;SDS011;64964;48.694;21.206;2023-08-08T01:58:41;4.40;;;2.17;;
76194;SDS011;64964;48.694;21.206;2023-08-08T02:01:06;6.83;;;2.67;;
76194;SDS011;64964;48.694;21.206;2023-08-08T02:03:32;5.30;;;3.00;;
76194;SDS011;64964;48.694;21.206;2023-08-08T02:05:57;8.77;;;6.00;;
76194;SDS011;64964;48.694;21.206;2023-08-08T02:08:22;10.87;;;7.33;;
76194;SDS011;64964;48.694;21.206;2023-08-08T02:10:48;9.70;;;6.50;;
76194;SDS011;64964;48.694;21.206;2023-08-08T02:13:13;7.83;;;3.80;;
76194;SDS011;64964;48.694;21.206;2023-08-08T02:15:39;6.53;;;3.60;;
76194;SDS011;64964;48.694;21.206;2023-08-08T02:18:04;7.45;;;4.00;;
76194;SDS011;64964;48.694;21.206;2023-08-08T02:20:30;6.90;;;3.87;;
76194;SDS011;64964;48.694;21.206;2023-08-08T02:22:56;4.88;;;3.03;;
76194;SDS011;64964;48.694;21.206;2023-08-08T02:25:21;4.67;;;2.70;;
76194;SDS011;64964;48.694;21.206;2023-08-08T02:27:46;6.03;;;2.67;;
76194;SDS011;64964;48.694;21.206;2023-08-08T02:30:12;7.17;;;3.30;;
76194;SDS011;64964;48.694;21.206;2023-08-08T02:32:38;7.45;;;3.50;;
76194;SDS011;64964;48.694;21.206;2023-08-08T02:35:03;5.67;;;3.20;;
76194;SDS011;64964;48.694;21.206;2023-08-08T02:37:29;6.72;;;3.75;;
76194;SDS011;64964;48.694;21.206;2023-08-08T02:39:54;10.20;;;5.57;;
76194;SDS011;64964;48.694;21.206;2023-08-08T02:42:19;8.67;;;4.63;;
76194;SDS011;64964;48.694;21.206;2023-08-08T02:44:45;13.03;;;5.87;;
76194;SDS011;64964;48.694;21.206;2023-08-08T02:47:10;11.75;;;6.60;;
76194;SDS011;64964;48.694;21.206;2023-08-08T02:49:35;12.97;;;6.80;;
76194;SDS011;64964;48.694;21.206;2023-08-08T02:52:01;16.33;;;8.70;;
76194;SDS011;64964;48.694;21.206;2023-08-08T02:54:26;17.40;;;9.27;;
76194;SDS011;64964;48.694;21.206;2023-08-08T02:56:52;15.85;;;9.18;;
76194;SDS011;64964;48.694;21.206;2023-08-08T02:59:17;18.20;;;8.93;;
76194;SDS011;64964;48.694;21.206;2023-08-08T03:01:42;18.40;;;9.37;;
76194;SDS011;64964;48.694;21.206;2023-08-08T03:04:08;17.57;;;8.87;;
76194;SDS011;64964;48.694;21.206;2023-08-08T03:06:33;12.50;;;7.25;;
76194;SDS011;64964;48.694;21.206;2023-08-08T03:08:59;12.20;;;7.07;;
76194;SDS011;64964;48.694;21.206;2023-08-08T03:11:24;12.23;;;6.83;;
76194;SDS011;64964;48.694;21.206;2023-08-08T03:13:49;16.97;;;7.23;;
76194;SDS011;64964;48.694;21.206;2023-08-08T03:16:15;12.27;;;7.03;;
76194;SDS011;64964;48.694;21.206;2023-08-08T03:18:40;14.90;;;7.30;;
76194;SDS011;64964;48.694;21.206;2023-08-08T03:21:06;17.57;;;7.80;;
76194;SDS011;64964;48.694;21.206;2023-08-08T03:23:31;12.77;;;7.47;;
76194;SDS011;64964;48.694;21.206;2023-08-08T03:25:56;16.80;;;7.80;;
76194;SDS011;64964;48.694;21.206;2023-08-08T03:28:22;14.83;;;7.97;;
76194;SDS011;64964;48.694;21.206;2023-08-08T03:30:47;15.90;;;7.77;;
76194;SDS011;64964;48.694;21.206;2023-08-08T03:33:13;14.73;;;7.43;;
76194;SDS011;64964;48.694;21.206;2023-08-08T03:35:38;15.77;;;7.80;;
76194;SDS011;64964;48.694;21.206;2023-08-08T03:38:03;17.43;;;7.13;;
76194;SDS011;64964;48.694;21.206;2023-08-08T03:40:29;15.57;;;7.80;;
76194;SDS011;64964;48.694;21.206;2023-08-08T03:42:55;17.30;;;7.47;;
76194;SDS011;64964;48.694;21.206;2023-08-08T03:45:21;13.97;;;7.10;;
76194;SDS011;64964;48.694;21.206;2023-08-08T03:47:46;13.50;;;6.50;;
76194;SDS011;64964;48.694;21.206;2023-08-08T03:50:12;13.10;;;6.87;;
76194;SDS011;64964;48.694;21.206;2023-08-08T03:52:38;13.27;;;6.85;;
76194;SDS011;64964;48.694;21.206;2023-08-08T03:55:04;14.57;;;6.13;;
76194;SDS011;64964;48.694;21.206;2023-08-08T03:57:30;11.82;;;5.72;;
76194;SDS011;64964;48.694;21.206;2023-08-08T03:59:55;7.95;;;5.00;;
76194;SDS011;64964;48.694;21.206;2023-08-08T04:02:20;9.27;;;4.90;;
76194;SDS011;64964;48.694;21.206;2023-08-08T04:04:46;9.17;;;4.77;;
76194;SDS011;64964;48.694;21.206;2023-08-08T04:07:11;7.83;;;5.17;;
76194;SDS011;64964;48.694;21.206;2023-08-08T04:09:36;11.27;;;5.37;;
76194;SDS011;64964;48.694;21.206;2023-08-08T04:12:02;7.93;;;4.53;;
76194;SDS011;64964;48.694;21.206;2023-08-08T04:14:27;9.97;;;4.07;;
76194;SDS011;64964;48.694;21.206;2023-08-08T04:16:53;5.10;;;3.40;;
76194;SDS011;64964;48.694;21.206;2023-08-08T04:19:19;7.37;;;3.10;;
76194;SDS011;64964;48.694;21.206;2023-08-08T04:21:44;8.03;;;2.67;;
76194;SDS011;64964;48.694;21.206;2023-08-08T04:24:10;4.33;;;2.90;;
76194;SDS011;64964;48.694;21.206;2023-08-08T04:26:37;5.20;;;2.93;;
76194;SDS011;64964;48.694;21.206;2023-08-08T04:29:02;5.53;;;2.85;;
76194;SDS011;64964;48.694;21.206;2023-08-08T04:31:28;7.93;;;4.50;;
76194;SDS011;64964;48.694;21.206;2023-08-08T04:33:54;6.38;;;5.13;;
76194;SDS011;64964;48.694;21.206;2023-08-08T04:36:25;7.80;;;4.38;;
76194;SDS011;64964;48.694;21.206;2023-08-08T04:38:51;7.20;;;3.23;;
76194;SDS011;64964;48.694;21.206;2023-08-08T04:41:16;6.03;;;3.40;;
76194;SDS011;64964;48.694;21.206;2023-08-08T04:43:41;8.77;;;4.00;;
76194;SDS011;64964;48.694;21.206;2023-08-08T04:46:07;10.30;;;4.83;;
76194;SDS011;64964;48.694;21.206;2023-08-08T04:48:32;10.40;;;4.70;;
76194;SDS011;64964;48.694;21.206;2023-08-08T04:50:57;11.13;;;4.83;;
76194;SDS011;64964;48.694;21.206;2023-08-08T04:53:23;9.23;;;4.70;;
76194;SDS011;64964;48.694;21.206;2023-08-08T04:55:48;9.30;;;5.47;;
76194;SDS011;64964;48.694;21.206;2023-08-08T04:58:14;11.33;;;5.00;;
76194;SDS011;64964;48.694;21.206;2023-08-08T05:00:39;11.47;;;5.10;;
76194;SDS011;64964;48.694;21.206;2023-08-08T05:03:04;9.90;;;4.53;;
76194;SDS011;64964;48.694;21.206;2023-08-08T05:05:30;9.80;;;4.67;;
76194;SDS011;64964;48.694;21.206;2023-08-08T05:07:55;11.27;;;5.43;;
76194;SDS011;64964;48.694;21.206;2023-08-08T05:10:20;10.93;;;5.40;;
76194;SDS011;64964;48.694;21.206;2023-08-08T05:12:46;10.38;;;5.50;;
76194;SDS011;64964;48.694;21.206;2023-08-08T05:15:13;11.80;;;6.60;;
76194;SDS011;64964;48.694;21.206;2023-08-08T05:17:38;15.18;;;6.47;;
76194;SDS011;64964;48.694;21.206;2023-08-08T05:20:04;12.40;;;6.77;;
76194;SDS011;64964;48.694;21.206;2023-08-08T05:22:30;13.20;;;6.57;;
76194;SDS011;64964;48.694;21.206;2023-08-08T05:24:55;12.87;;;6.60;;
76194;SDS011;64964;48.694;21.206;2023-08-08T05:27:21;13.97;;;6.50;;
76194;SDS011;64964;48.694;21.206;2023-08-08T05:29:46;15.20;;;7.13;;
76194;SDS011;64964;48.694;21.206;2023-08-08T05:32:11;13.17;;;6.67;;
76194;SDS011;64964;48.694;21.206;2023-08-08T05:34:37;15.50;;;7.70;;
76194;SDS011;64964;48.694;21.206;2023-08-08T05:37:02;17.57;;;8.37;;
76194;SDS011;64964;48.694;21.206;2023-08-08T05:39:28;17.40;;;8.23;;
76194;SDS011;64964;48.694;21.206;2023-08-08T05:41:54;17.65;;;8.23;;
76194;SDS011;64964;48.694;21.206;2023-08-08T05:44:20;16.87;;;7.57;;
76194;SDS011;64964;48.694;21.206;2023-08-08T05:46:45;12.77;;;7.30;;
76194;SDS011;64964;48.694;21.206;2023-08-08T05:49:10;20.80;;;8.27;;
76194;SDS011;64964;48.694;21.206;2023-08-08T05:51:36;16.13;;;7.67;;
76194;SDS011;64964;48.694;21.206;2023-08-08T05:54:01;16.87;;;7.33;;
76194;SDS011;64964;48.694;21.206;2023-08-08T05:56:33;16.52;;;7.35;;
76194;SDS011;64964;48.694;21.206;2023-08-08T05:59:01;18.90;;;8.13;;
76194;SDS011;64964;48.694;21.206;2023-08-08T06:01:26;16.87;;;8.00;;
76194;SDS011;64964;48.694;21.206;2023-08-08T06:03:51;17.43;;;8.23;;
76194;SDS011;64964;48.694;21.206;2023-08-08T06:06:18;20.27;;;8.63;;
76194;SDS011;64964;48.694;21.206;2023-08-08T06:08:43;16.87;;;8.13;;
76194;SDS011;64964;48.694;21.206;2023-08-08T06:11:08;17.80;;;7.88;;
76194;SDS011;64964;48.694;21.206;2023-08-08T06:13:34;15.23;;;7.87;;
76194;SDS011;64964;48.694;21.206;2023-08-08T06:15:59;16.47;;;8.33;;
76194;SDS011;64964;48.694;21.206;2023-08-08T06:18:26;14.93;;;7.68;;
76194;SDS011;64964;48.694;21.206;2023-08-08T06:20:51;16.93;;;7.93;;
76194;SDS011;64964;48.694;21.206;2023-08-08T06:23:17;14.80;;;7.60;;
76194;SDS011;64964;48.694;21.206;2023-08-08T06:25:42;17.10;;;8.13;;
76194;SDS011;64964;48.694;21.206;2023-08-08T06:28:07;15.13;;;7.87;;
76194;SDS011;64964;48.694;21.206;2023-08-08T06:30:33;12.53;;;6.77;;
76194;SDS011;64964;48.694;21.206;2023-08-08T06:32:58;14.47;;;7.27;;
76194;SDS011;64964;48.694;21.206;2023-08-08T06:35:23;13.60;;;6.67;;
76194;SDS011;64964;48.694;21.206;2023-08-08T06:37:49;12.02;;;6.90;;
76194;SDS011;64964;48.694;21.206;2023-08-08T06:40:14;13.63;;;6.63;;
76194;SDS011;64964;48.694;21.206;2023-08-08T06:42:41;14.95;;;6.43;;
76194;SDS011;64964;48.694;21.206;2023-08-08T06:45:06;10.97;;;6.37;;
76194;SDS011;64964;48.694;21.206;2023-08-08T06:47:32;11.98;;;6.03;;
76194;SDS011;64964;48.694;21.206;2023-08-08T06:49:57;11.77;;;6.13;;
76194;SDS011;64964;48.694;21.206;2023-08-08T06:52:23;11.63;;;6.40;;
76194;SDS011;64964;48.694;21.206;2023-08-08T06:54:48;9.80;;;5.63;;
76194;SDS011;64964;48.694;21.206;2023-08-08T06:57:13;8.60;;;4.63;;
76194;SDS011;64964;48.694;21.206;2023-08-08T06:59:39;8.33;;;4.40;;
76194;SDS011;64964;48.694;21.206;2023-08-08T07:02:04;7.70;;;4.00;;
76194;SDS011;64964;48.694;21.206;2023-08-08T07:04:30;8.57;;;5.22;;
76194;SDS011;64964;48.694;21.206;2023-08-08T07:06:56;7.70;;;3.80;;
76194;SDS011;64964;48.694;21.206;2023-08-08T07:09:21;5.80;;;3.67;;
76194;SDS011;64964;48.694;21.206;2023-08-08T07:11:46;7.20;;;4.13;;
76194;SDS011;64964;48.694;21.206;2023-08-08T07:14:12;4.65;;;3.08;;
76194;SDS011;64964;48.694;21.206;2023-08-08T07:16:38;5.57;;;2.90;;
76194;SDS011;64964;48.694;21.206;2023-08-08T07:19:03;5.23;;;2.80;;
76194;SDS011;64964;48.694;21.206;2023-08-08T07:21:28;4.35;;;2.60;;
76194;SDS011;64964;48.694;21.206;2023-08-08T07:23:54;7.77;;;2.50;;
76194;SDS011;64964;48.694;21.206;2023-08-08T07:26:20;3.67;;;2.50;;
76194;SDS011;64964;48.694;21.206;2023-08-08T07:28:47;5.20;;;2.53;;
76194;SDS011;64964;48.694;21.206;2023-08-08T07:31:12;4.45;;;2.67;;
76194;SDS011;64964;48.694;21.206;2023-08-08T07:33:37;3.67;;;2.43;;
76194;SDS011;64964;48.694;21.206;2023-08-08T07:36:03;3.80;;;2.20;;
76194;SDS011;64964;48.694;21.206;2023-08-08T07:38:29;4.70;;;2.25;;
76194;SDS011;64964;48.694;21.206;2023-08-08T07:40:54;3.40;;;1.90;;
76194;SDS011;64964;48.694;21.206;2023-08-08T07:43:20;2.80;;;1.80;;
76194;SDS011;64964;48.694;21.206;2023-08-08T07:45:45;4.10;;;2.00;;
76194;SDS011;64964;48.694;21.206;2023-08-08T07:48:11;3.03;;;2.03;;
76194;SDS011;64964;48.694;21.206;2023-08-08T07:50:37;5.28;;;2.15;;
76194;SDS011;64964;48.694;21.206;2023-08-08T07:53:02;3.70;;;1.80;;
76194;SDS011;64964;48.694;21.206;2023-08-08T07:55:28;3.20;;;2.00;;
76194;SDS011;64964;48.694;21.206;2023-08-08T07:57:53;5.43;;;1.80;;
76194;SDS011;64964;48.694;21.206;2023-08-08T08:00:19;2.65;;;1.45;;
76194;SDS011;64964;48.694;21.206;2023-08-08T08:02:45;2.30;;;1.60;;
76194;SDS011;64964;48.694;21.206;2023-08-08T08:05:11;1.92;;;1.60;;
76194;SDS011;64964;48.694;21.206;2023-08-08T08:07:38;3.30;;;1.93;;
76194;SDS011;64964;48.694;21.206;2023-08-08T08:10:06;2.97;;;1.70;;
76194;SDS011;64964;48.694;21.206;2023-08-08T08:12:33;3.72;;;1.73;;
76194;SDS011;64964;48.694;21.206;2023-08-08T08:14:59;2.92;;;2.00;;
76194;SDS011;64964;48.694;21.206;2023-08-08T08:17:25;2.43;;;1.67;;
76194;SDS011;64964;48.694;21.206;2023-08-08T08:19:52;2.28;;;1.50;;
76194;SDS011;64964;48.694;21.206;2023-08-08T08:22:18;3.17;;;2.00;;
76194;SDS011;64964;48.694;21.206;2023-08-08T08:24:44;3.80;;;2.60;;
76194;SDS011;64964;48.694;21.206;2023-08-08T08:27:09;5.30;;;2.03;;
76194;SDS011;64964;48.694;21.206;2023-08-08T08:29:34;5.23;;;1.90;;
76194;SDS011;64964;48.694;21.206;2023-08-08T08:32:00;2.73;;;1.60;;
76194;SDS011;64964;48.694;21.206;2023-08-08T08:34:25;2.28;;;1.50;;
76194;SDS011;64964;48.694;21.206;2023-08-08T08:36:50;1.47;;;1.17;;
76194;SDS011;64964;48.694;21.206;2023-08-08T08:39:16;2.73;;;1.40;;
76194;SDS011;64964;48.694;21.206;2023-08-08T08:41:41;2.07;;;1.23;;
76194;SDS011;64964;48.694;21.206;2023-08-08T08:44:14;1.98;;;1.42;;
76194;SDS011;64964;48.694;21.206;2023-08-08T08:46:41;3.20;;;1.70;;
76194;SDS011;64964;48.694;21.206;2023-08-08T08:49:07;2.10;;;1.30;;
76194;SDS011;64964;48.694;21.206;2023-08-08T08:51:35;1.60;;;1.38;;
76194;SDS011;64964;48.694;21.206;2023-08-08T08:54:01;1.73;;;1.30;;
76194;SDS011;64964;48.694;21.206;2023-08-08T08:56:27;2.20;;;1.60;;
76194;SDS011;64964;48.694;21.206;2023-08-08T08:58:53;3.17;;;1.70;;
76194;SDS011;64964;48.694;21.206;2023-08-08T09:01:19;3.33;;;1.60;;
76194;SDS011;64964;48.694;21.206;2023-08-08T09:03:44;2.03;;;1.45;;
76194;SDS011;64964;48.694;21.206;2023-08-08T09:06:11;2.90;;;1.60;;
76194;SDS011;64964;48.694;21.206;2023-08-08T09:08:37;5.63;;;1.55;;
76194;SDS011;64964;48.694;21.206;2023-08-08T09:11:02;3.17;;;1.40;;
76194;SDS011;64964;48.694;21.206;2023-08-08T09:13:33;2.47;;;1.40;;
76194;SDS011;64964;48.694;21.206;2023-08-08T09:16:01;2.72;;;1.40;;
76194;SDS011;64964;48.694;21.206;2023-08-08T09:18:26;2.07;;;1.40;;
76194;SDS011;64964;48.694;21.206;2023-08-08T09:20:52;2.07;;;1.50;;
76194;SDS011;64964;48.694;21.206;2023-08-08T09:23:17;2.97;;;1.47;;
76194;SDS011;64964;48.694;21.206;2023-08-08T09:25:42;2.43;;;1.73;;
76194;SDS011;64964;48.694;21.206;2023-08-08T09:28:08;2.42;;;1.60;;
76194;SDS011;64964;48.694;21.206;2023-08-08T09:30:34;2.60;;;1.47;;
76194;SDS011;64964;48.694;21.206;2023-08-08T09:33:00;2.97;;;1.90;;
76194;SDS011;64964;48.694;21.206;2023-08-08T09:35:26;2.67;;;1.50;;
76194;SDS011;64964;48.694;21.206;2023-08-08T09:37:54;2.95;;;1.60;;
76194;SDS011;64964;48.694;21.206;2023-08-08T09:40:20;4.50;;;1.60;;
76194;SDS011;64964;48.694;21.206;2023-08-08T09:42:46;2.28;;;1.42;;
76194;SDS011;64964;48.694;21.206;2023-08-08T09:45:12;2.03;;;1.40;;
76194;SDS011;64964;48.694;21.206;2023-08-08T09:47:37;2.63;;;1.23;;
76194;SDS011;64964;48.694;21.206;2023-08-08T09:50:03;2.53;;;1.73;;
76194;SDS011;64964;48.694;21.206;2023-08-08T09:52:29;2.45;;;1.23;;
76194;SDS011;64964;48.694;21.206;2023-08-08T09:54:55;1.20;;;1.10;;
76194;SDS011;64964;48.694;21.206;2023-08-08T09:57:22;3.07;;;1.20;;
76194;SDS011;64964;48.694;21.206;2023-08-08T09:59:47;1.73;;;1.08;;
76194;SDS011;64964;48.694;21.206;2023-08-08T10:02:14;2.47;;;1.40;;
76194;SDS011;64964;48.694;21.206;2023-08-08T10:04:44;3.25;;;1.30;;
76194;SDS011;64964;48.694;21.206;2023-08-08T10:07:10;1.80;;;1.40;;
76194;SDS011;64964;48.694;21.206;2023-08-08T10:09:36;3.50;;;1.10;;
76194;SDS011;64964;48.694;21.206;2023-08-08T10:12:02;5.15;;;1.30;;
76194;SDS011;64964;48.694;21.206;2023-08-08T10:14:30;2.73;;;1.10;;
76194;SDS011;64964;48.694;21.206;2023-08-08T10:16:56;1.45;;;1.15;;
76194;SDS011;64964;48.694;21.206;2023-08-08T10:19:22;1.88;;;1.33;;
76194;SDS011;64964;48.694;21.206;2023-08-08T10:21:48;1.90;;;1.50;;
76194;SDS011;64964;48.694;21.206;2023-08-08T10:24:21;2.97;;;1.90;;
76194;SDS011;64964;48.694;21.206;2023-08-08T10:26:53;2.30;;;1.80;;
76194;SDS011;64964;48.694;21.206;2023-08-08T10:29:24;2.40;;;1.90;;
76194;SDS011;64964;48.694;21.206;2023-08-08T10:31:51;2.10;;;1.60;;
76194;SDS011;64964;48.694;21.206;2023-08-08T10:34:19;3.53;;;1.33;;
76194;SDS011;64964;48.694;21.206;2023-08-08T10:36:50;3.20;;;1.25;;
76194;SDS011;64964;48.694;21.206;2023-08-08T10:39:17;2.58;;;1.17;;
76194;SDS011;64964;48.694;21.206;2023-08-08T10:41:45;1.30;;;1.20;;
76194;SDS011;64964;48.694;21.206;2023-08-08T10:44:12;1.83;;;1.40;;
76194;SDS011;64964;48.694;21.206;2023-08-08T10:46:39;2.37;;;1.80;;
76194;SDS011;64964;48.694;21.206;2023-08-08T10:49:06;1.83;;;1.50;;
76194;SDS011;64964;48.694;21.206;2023-08-08T10:51:38;2.65;;;1.20;;
76194;SDS011;64964;48.694;21.206;2023-08-08T10:54:12;5.47;;;1.60;;
76194;SDS011;64964;48.694;21.206;2023-08-08T10:56:39;1.95;;;1.42;;
76194;SDS011;64964;48.694;21.206;2023-08-08T10:59:15;1.75;;;1.40;;
76194;SDS011;64964;48.694;21.206;2023-08-08T11:01:42;2.50;;;1.63;;
76194;SDS011;64964;48.694;21.206;2023-08-08T11:04:12;3.42;;;1.80;;
76194;SDS011;64964;48.694;21.206;2023-08-08T11:06:39;3.40;;;1.70;;
76194;SDS011;64964;48.694;21.206;2023-08-08T11:09:07;4.38;;;1.67;;
76194;SDS011;64964;48.694;21.206;2023-08-08T11:11:36;3.78;;;2.05;;
76194;SDS011;64964;48.694;21.206;2023-08-08T11:14:16;2.97;;;1.90;;
76194;SDS011;64964;48.694;21.206;2023-08-08T11:16:44;3.57;;;1.90;;
76194;SDS011;64964;48.694;21.206;2023-08-08T11:19:10;2.78;;;1.52;;
76194;SDS011;64964;48.694;21.206;2023-08-08T11:21:37;1.60;;;1.25;;
76194;SDS011;64964;48.694;21.206;2023-08-08T11:24:05;1.25;;;1.15;;
76194;SDS011;64964;48.694;21.206;2023-08-08T11:26:31;2.00;;;1.35;;
76194;SDS011;64964;48.694;21.206;2023-08-08T11:28:58;1.63;;;1.10;;
76194;SDS011;64964;48.694;21.206;2023-08-08T11:31:25;2.50;;;1.20;;
76194;SDS011;64964;48.694;21.206;2023-08-08T11:33:52;4.07;;;1.30;;
76194;SDS011;64964;48.694;21.206;2023-08-08T11:36:18;1.60;;;1.33;;
76194;SDS011;64964;48.694;21.206;2023-08-08T11:38:44;4.55;;;1.30;;
76194;SDS011;64964;48.694;21.206;2023-08-08T11:41:12;2.07;;;1.60;;
76194;SDS011;64964;48.694;21.206;2023-08-08T11:43:39;1.52;;;1.27;;
76194;SDS011;64964;48.694;21.206;2023-08-08T11:46:13;2.10;;;1.13;;
76194;SDS011;64964;48.694;21.206;2023-08-08T11:48:40;1.77;;;1.38;;
76194;SDS011;64964;48.694;21.206;2023-08-08T11:51:06;1.50;;;1.33;;
76194;SDS011;64964;48.694;21.206;2023-08-08T11:53:33;2.47;;;1.50;;
76194;SDS011;64964;48.694;21.206;2023-08-08T11:56:01;3.07;;;1.20;;
76194;SDS011;64964;48.694;21.206;2023-08-08T11:58:31;1.50;;;1.30;;
76194;SDS011;64964;48.694;21.206;2023-08-08T12:00:57;1.45;;;1.00;;
76194;SDS011;64964;48.694;21.206;2023-08-08T12:03:24;1.27;;;1.17;;
76194;SDS011;64964;48.694;21.206;2023-08-08T12:05:51;1.30;;;1.08;;
76194;SDS011;64964;48.694;21.206;2023-08-08T12:08:19;1.40;;;1.30;;
76194;SDS011;64964;48.694;21.206;2023-08-08T12:10:48;3.15;;;1.67;;
76194;SDS011;64964;48.694;21.206;2023-08-08T12:13:22;1.40;;;1.30;;
76194;SDS011;64964;48.694;21.206;2023-08-08T12:15:52;1.60;;;1.50;;
76194;SDS011;64964;48.694;21.206;2023-08-08T12:18:17;1.35;;;1.25;;
76194;SDS011;64964;48.694;21.206;2023-08-08T12:20:43;1.45;;;1.30;;
76194;SDS011;64964;48.694;21.206;2023-08-08T12:23:09;1.40;;;1.30;;
76194;SDS011;64964;48.694;21.206;2023-08-08T12:25:35;2.38;;;1.50;;
76194;SDS011;64964;48.694;21.206;2023-08-08T12:28:01;2.00;;;1.40;;
76194;SDS011;64964;48.694;21.206;2023-08-08T12:30:27;2.97;;;1.33;;
76194;SDS011;64964;48.694;21.206;2023-08-08T12:32:52;2.53;;;1.57;;
76194;SDS011;64964;48.694;21.206;2023-08-08T12:35:18;3.25;;;1.30;;
76194;SDS011;64964;48.694;21.206;2023-08-08T12:37:45;2.50;;;1.60;;
76194;SDS011;64964;48.694;21.206;2023-08-08T12:40:11;2.90;;;1.30;;
76194;SDS011;64964;48.694;21.206;2023-08-08T12:42:36;1.25;;;1.15;;
76194;SDS011;64964;48.694;21.206;2023-08-08T12:45:02;1.70;;;1.30;;
76194;SDS011;64964;48.694;21.206;2023-08-08T12:47:28;1.35;;;1.10;;
76194;SDS011;64964;48.694;21.206;2023-08-08T12:49:54;2.23;;;1.20;;
76194;SDS011;64964;48.694;21.206;2023-08-08T12:52:19;1.35;;;1.25;;
76194;SDS011;64964;48.694;21.206;2023-08-08T12:54:45;1.30;;;1.20;;
76194;SDS011;64964;48.694;21.206;2023-08-08T12:57:10;3.40;;;1.37;;
76194;SDS011;64964;48.694;21.206;2023-08-08T12:59:36;2.80;;;1.55;;
76194;SDS011;64964;48.694;21.206;2023-08-08T13:02:02;1.40;;;1.30;;
76194;SDS011;64964;48.694;21.206;2023-08-08T13:04:27;1.30;;;1.20;;
76194;SDS011;64964;48.694;21.206;2023-08-08T13:06:53;1.60;;;1.10;;
76194;SDS011;64964;48.694;21.206;2023-08-08T13:09:18;6.45;;;1.40;;
76194;SDS011;64964;48.694;21.206;2023-08-08T13:11:44;3.53;;;1.33;;
76194;SDS011;64964;48.694;21.206;2023-08-08T13:14:10;2.05;;;1.17;;
76194;SDS011;64964;48.694;21.206;2023-08-08T13:16:36;1.30;;;1.20;;
76194;SDS011;64964;48.694;21.206;2023-08-08T13:19:01;1.90;;;1.30;;
76194;SDS011;64964;48.694;21.206;2023-08-08T13:21:28;1.83;;;1.35;;
76194;SDS011;64964;48.694;21.206;2023-08-08T13:23:53;1.87;;;1.33;;
76194;SDS011;64964;48.694;21.206;2023-08-08T13:26:19;1.70;;;1.30;;
76194;SDS011;64964;48.694;21.206;2023-08-08T13:28:44;1.43;;;1.23;;
76194;SDS011;64964;48.694;21.206;2023-08-08T13:31:10;3.05;;;1.05;;
76194;SDS011;64964;48.694;21.206;2023-08-08T13:33:35;2.53;;;1.60;;
76194;SDS011;64964;48.694;21.206;2023-08-08T13:36:01;1.57;;;1.20;;
76194;SDS011;64964;48.694;21.206;2023-08-08T13:38:26;1.98;;;1.15;;
76194;SDS011;64964;48.694;21.206;2023-08-08T13:40:51;3.90;;;1.20;;
76194;SDS011;64964;48.694;21.206;2023-08-08T13:43:17;1.87;;;1.30;;
76194;SDS011;64964;48.694;21.206;2023-08-08T13:45:42;2.27;;;1.30;;
76194;SDS011;64964;48.694;21.206;2023-08-08T13:48:08;1.80;;;1.15;;
76194;SDS011;64964;48.694;21.206;2023-08-08T13:50:33;2.63;;;1.30;;
76194;SDS011;64964;48.694;21.206;2023-08-08T13:52:58;2.30;;;1.30;;
76194;SDS011;64964;48.694;21.206;2023-08-08T13:55:24;1.20;;;1.10;;
76194;SDS011;64964;48.694;21.206;2023-08-08T13:57:50;1.50;;;1.30;;
76194;SDS011;64964;48.694;21.206;2023-08-08T14:00:16;1.93;;;1.30;;
76194;SDS011;64964;48.694;21.206;2023-08-08T14:02:41;2.78;;;1.33;;
76194;SDS011;64964;48.694;21.206;2023-08-08T14:05:07;2.57;;;1.33;;
76194;SDS011;64964;48.694;21.206;2023-08-08T14:07:33;1.47;;;1.10;;
76194;SDS011;64964;48.694;21.206;2023-08-08T14:09:59;1.23;;;1.10;;
76194;SDS011;64964;48.694;21.206;2023-08-08T14:12:24;1.95;;;1.15;;
76194;SDS011;64964;48.694;21.206;2023-08-08T14:14:50;1.17;;;1.00;;
76194;SDS011;64964;48.694;21.206;2023-08-08T14:17:15;2.90;;;1.03;;
76194;SDS011;64964;48.694;21.206;2023-08-08T14:19:40;2.30;;;1.47;;
76194;SDS011;64964;48.694;21.206;2023-08-08T14:22:06;1.30;;;1.20;;
76194;SDS011;64964;48.694;21.206;2023-08-08T14:24:31;1.67;;;1.20;;
76194;SDS011;64964;48.694;21.206;2023-08-08T14:26:56;3.30;;;1.20;;